sensor_id;sensor_type;location;lat;lon;timestamp;temperature;humidity
3310;DHT22;1667;53.238;10.394;2023-12-20T00:00:32;9.80;99.90
3310;DHT22;1667;53.238;10.394;2023-12-20T00:05:31;9.80;99.90
3310;DHT22;1667;53.238;10.394;2023-12-20T00:10:31;9.80;99.90
3310;DHT22;1667;53.238;10.394;2023-12-20T00:15:31;9.80;99.90
3310;DHT22;1667;53.238;10.394;2023-12-20T00:20:30;9.70;99.90
3310;DHT22;1667;53.238;10.394;2023-12-20T00:25:29;9.70;99.90
3310;DHT22;1667;53.238;10.394;2023-12-20T00:30:28;9.70;99.90
3310;DHT22;1667;53.238;10.394;2023-12-20T00:35:29;9.70;99.90
3310;DHT22;1667;53.238;10.394;2023-12-20T00:40:28;9.70;99.90
3310;DHT22;1667;53.238;10.394;2023-12-20T00:45:27;9.60;99.90
3310;DHT22;1667;53.238;10.394;2023-12-20T00:50:26;9.60;99.90
3310;DHT22;1667;53.238;10.394;2023-12-20T00:55:27;9.60;99.90
3310;DHT22;1667;53.238;10.394;2023-12-20T01:00:27;9.50;99.90
3310;DHT22;1667;53.238;10.394;2023-12-20T01:05:25;9.50;99.90
3310;DHT22;1667;53.238;10.394;2023-12-20T01:10:24;9.40;99.90
3310;DHT22;1667;53.238;10.394;2023-12-20T01:15:27;9.40;99.90
3310;DHT22;1667;53.238;10.394;2023-12-20T01:20:26;9.40;99.90
3310;DHT22;1667;53.238;10.394;2023-12-20T01:25:25;9.30;99.90
3310;DHT22;1667;53.238;10.394;2023-12-20T01:30:24;9.30;99.90
3310;DHT22;1667;53.238;10.394;2023-12-20T01:35:24;9.20;99.90
3310;DHT22;1667;53.238;10.394;2023-12-20T01:40:23;9.20;99.90
3310;DHT22;1667;53.238;10.394;2023-12-20T01:45:22;9.20;99.90
3310;DHT22;1667;53.238;10.394;2023-12-20T01:50:21;9.20;99.90
3310;DHT22;1667;53.238;10.394;2023-12-20T01:55:22;9.20;99.90
3310;DHT22;1667;53.238;10.394;2023-12-20T02:06:15;9.10;99.90
3310;DHT22;1667;53.238;10.394;2023-12-20T02:11:16;9.10;99.90
3310;DHT22;1667;53.238;10.394;2023-12-20T02:16:15;9.00;99.90
3310;DHT22;1667;53.238;10.394;2023-12-20T02:21:15;9.00;99.90
3310;DHT22;1667;53.238;10.394;2023-12-20T02:26:15;8.90;99.90
3310;DHT22;1667;53.238;10.394;2023-12-20T02:31:14;8.90;99.90
3310;DHT22;1667;53.238;10.394;2023-12-20T02:36:13;8.90;99.90
3310;DHT22;1667;53.238;10.394;2023-12-20T02:41:11;8.90;99.90
3310;DHT22;1667;53.238;10.394;2023-12-20T02:46:14;8.90;99.90
3310;DHT22;1667;53.238;10.394;2023-12-20T02:51:14;8.80;99.90
3310;DHT22;1667;53.238;10.394;2023-12-20T02:56:13;8.70;99.90
3310;DHT22;1667;53.238;10.394;2023-12-20T03:01:13;8.70;99.90
3310;DHT22;1667;53.238;10.394;2023-12-20T03:06:16;8.70;99.90
3310;DHT22;1667;53.238;10.394;2023-12-20T03:11:16;8.60;99.90
3310;DHT22;1667;53.238;10.394;2023-12-20T03:16:16;8.60;99.90
3310;DHT22;1667;53.238;10.394;2023-12-20T03:21:15;8.70;99.90
3310;DHT22;1667;53.238;10.394;2023-12-20T03:26:14;9.00;99.90
3310;DHT22;1667;53.238;10.394;2023-12-20T03:31:13;8.60;99.90
3310;DHT22;1667;53.238;10.394;2023-12-20T03:36:14;8.60;99.90
3310;DHT22;1667;53.238;10.394;2023-12-20T03:41:13;8.60;99.90
3310;DHT22;1667;53.238;10.394;2023-12-20T03:46:12;8.50;99.90
3310;DHT22;1667;53.238;10.394;2023-12-20T03:51:11;8.50;99.90
3310;DHT22;1667;53.238;10.394;2023-12-20T03:56:12;8.50;99.90
3310;DHT22;1667;53.238;10.394;2023-12-20T04:01:10;8.80;99.90
3310;DHT22;1667;53.238;10.394;2023-12-20T04:06:28;8.50;99.90
3310;DHT22;1667;53.238;10.394;2023-12-20T04:11:28;8.60;99.90
3310;DHT22;1667;53.238;10.394;2023-12-20T04:16:27;8.40;99.90
3310;DHT22;1667;53.238;10.394;2023-12-20T04:21:27;8.40;99.90
3310;DHT22;1667;53.238;10.394;2023-12-20T04:26:25;8.40;99.90
3310;DHT22;1667;53.238;10.394;2023-12-20T04:31:26;8.50;99.90
3310;DHT22;1667;53.238;10.394;2023-12-20T04:36:25;8.40;99.90
3310;DHT22;1667;53.238;10.394;2023-12-20T04:41:24;8.40;99.90
3310;DHT22;1667;53.238;10.394;2023-12-20T04:46:26;8.40;99.90
3310;DHT22;1667;53.238;10.394;2023-12-20T04:51:25;8.40;99.90
3310;DHT22;1667;53.238;10.394;2023-12-20T04:56:24;8.40;99.90
3310;DHT22;1667;53.238;10.394;2023-12-20T05:01:23;8.80;99.90
3310;DHT22;1667;53.238;10.394;2023-12-20T05:06:23;8.40;99.90
3310;DHT22;1667;53.238;10.394;2023-12-20T05:11:23;8.70;99.90
3310;DHT22;1667;53.238;10.394;2023-12-20T05:16:23;8.50;99.90
3310;DHT22;1667;53.238;10.394;2023-12-20T05:21:23;8.60;99.90
3310;DHT22;1667;53.238;10.394;2023-12-20T05:26:22;8.50;99.90
3310;DHT22;1667;53.238;10.394;2023-12-20T05:31:21;8.50;99.90
3310;DHT22;1667;53.238;10.394;2023-12-20T05:36:20;8.50;99.90
3310;DHT22;1667;53.238;10.394;2023-12-20T05:41:21;8.40;99.90
3310;DHT22;1667;53.238;10.394;2023-12-20T05:46:20;8.40;99.90
3310;DHT22;1667;53.238;10.394;2023-12-20T05:51:19;8.50;99.90
3310;DHT22;1667;53.238;10.394;2023-12-20T05:56:18;8.50;99.90
3310;DHT22;1667;53.238;10.394;2023-12-20T06:01:19;8.50;99.90
3310;DHT22;1667;53.238;10.394;2023-12-20T06:06:18;8.90;99.90
3310;DHT22;1667;53.238;10.394;2023-12-20T06:11:17;8.60;99.90
3310;DHT22;1667;53.238;10.394;2023-12-20T06:16:15;8.50;99.90
3310;DHT22;1667;53.238;10.394;2023-12-20T06:21:16;8.60;99.90
3310;DHT22;1667;53.238;10.394;2023-12-20T06:26:15;8.50;99.90
3310;DHT22;1667;53.238;10.394;2023-12-20T06:31:14;8.90;99.90
3310;DHT22;1667;53.238;10.394;2023-12-20T06:36:12;8.50;99.90
3310;DHT22;1667;53.238;10.394;2023-12-20T06:41:15;8.50;99.90
3310;DHT22;1667;53.238;10.394;2023-12-20T06:46:14;8.50;99.90
3310;DHT22;1667;53.238;10.394;2023-12-20T06:51:16;8.60;99.90
3310;DHT22;1667;53.238;10.394;2023-12-20T06:56:16;8.60;99.90
3310;DHT22;1667;53.238;10.394;2023-12-20T07:01:16;8.60;99.90
3310;DHT22;1667;53.238;10.394;2023-12-20T07:06:15;8.60;99.90
3310;DHT22;1667;53.238;10.394;2023-12-20T07:11:16;8.60;99.90
3310;DHT22;1667;53.238;10.394;2023-12-20T07:16:14;8.60;99.90
3310;DHT22;1667;53.238;10.394;2023-12-20T07:21:13;8.90;99.90
3310;DHT22;1667;53.238;10.394;2023-12-20T07:26:13;8.60;99.90
3310;DHT22;1667;53.238;10.394;2023-12-20T07:31:15;8.60;99.90
3310;DHT22;1667;53.238;10.394;2023-12-20T07:36:14;8.60;99.90
3310;DHT22;1667;53.238;10.394;2023-12-20T07:41:12;8.60;99.90
3310;DHT22;1667;53.238;10.394;2023-12-20T07:46:14;8.60;99.90
3310;DHT22;1667;53.238;10.394;2023-12-20T07:51:13;8.60;99.90
3310;DHT22;1667;53.238;10.394;2023-12-20T07:56:15;8.60;99.90
3310;DHT22;1667;53.238;10.394;2023-12-20T08:01:16;8.60;99.90
3310;DHT22;1667;53.238;10.394;2023-12-20T08:06:16;8.60;99.90
3310;DHT22;1667;53.238;10.394;2023-12-20T08:11:15;8.60;99.90
3310;DHT22;1667;53.238;10.394;2023-12-20T08:16:16;8.60;99.90
3310;DHT22;1667;53.238;10.394;2023-12-20T08:21:15;8.60;99.90
3310;DHT22;1667;53.238;10.394;2023-12-20T08:26:14;8.60;99.90
3310;DHT22;1667;53.238;10.394;2023-12-20T08:31:19;8.60;99.90
3310;DHT22;1667;53.238;10.394;2023-12-20T08:36:19;8.60;99.90
3310;DHT22;1667;53.238;10.394;2023-12-20T08:41:19;8.70;99.90
3310;DHT22;1667;53.238;10.394;2023-12-20T08:46:19;8.70;99.90
3310;DHT22;1667;53.238;10.394;2023-12-20T08:51:18;8.60;99.90
3310;DHT22;1667;53.238;10.394;2023-12-20T08:56:19;8.60;99.90
3310;DHT22;1667;53.238;10.394;2023-12-20T09:01:19;8.60;99.90
3310;DHT22;1667;53.238;10.394;2023-12-20T09:06:18;8.60;99.90
3310;DHT22;1667;53.238;10.394;2023-12-20T09:18:06;8.60;99.90
3310;DHT22;1667;53.238;10.394;2023-12-20T09:23:05;8.60;99.90
3310;DHT22;1667;53.238;10.394;2023-12-20T09:28:05;8.60;99.90
3310;DHT22;1667;53.238;10.394;2023-12-20T09:33:05;8.60;99.90
3310;DHT22;1667;53.238;10.394;2023-12-20T09:38:05;8.70;99.90
3310;DHT22;1667;53.238;10.394;2023-12-20T09:43:04;8.70;99.90
3310;DHT22;1667;53.238;10.394;2023-12-20T09:48:09;8.80;99.90
3310;DHT22;1667;53.238;10.394;2023-12-20T09:53:10;8.80;99.90
3310;DHT22;1667;53.238;10.394;2023-12-20T09:58:10;8.80;99.90
3310;DHT22;1667;53.238;10.394;2023-12-20T10:03:11;8.80;99.90
3310;DHT22;1667;53.238;10.394;2023-12-20T10:08:13;8.80;99.90
3310;DHT22;1667;53.238;10.394;2023-12-20T10:13:12;8.80;99.90
3310;DHT22;1667;53.238;10.394;2023-12-20T10:18:13;8.70;99.90
3310;DHT22;1667;53.238;10.394;2023-12-20T10:23:12;9.00;99.90
3310;DHT22;1667;53.238;10.394;2023-12-20T10:28:13;8.60;99.90
3310;DHT22;1667;53.238;10.394;2023-12-20T10:33:13;8.60;99.90
3310;DHT22;1667;53.238;10.394;2023-12-20T10:38:13;8.70;99.90
3310;DHT22;1667;53.238;10.394;2023-12-20T10:43:13;8.70;99.90
3310;DHT22;1667;53.238;10.394;2023-12-20T10:48:15;8.70;99.90
3310;DHT22;1667;53.238;10.394;2023-12-20T10:53:15;8.70;99.90
3310;DHT22;1667;53.238;10.394;2023-12-20T10:58:15;8.80;99.90
3310;DHT22;1667;53.238;10.394;2023-12-20T11:03:18;8.70;99.90
3310;DHT22;1667;53.238;10.394;2023-12-20T11:08:22;8.70;99.90
3310;DHT22;1667;53.238;10.394;2023-12-20T11:13:26;8.70;99.90
3310;DHT22;1667;53.238;10.394;2023-12-20T11:18:30;8.70;99.90
3310;DHT22;1667;53.238;10.394;2023-12-20T11:23:30;8.70;99.90
3310;DHT22;1667;53.238;10.394;2023-12-20T11:28:30;8.70;99.90
3310;DHT22;1667;53.238;10.394;2023-12-20T11:33:37;8.80;99.90
3310;DHT22;1667;53.238;10.394;2023-12-20T11:38:37;8.80;99.90
3310;DHT22;1667;53.238;10.394;2023-12-20T11:43:37;8.70;99.90
3310;DHT22;1667;53.238;10.394;2023-12-20T11:48:39;8.70;99.90
3310;DHT22;1667;53.238;10.394;2023-12-20T11:53:38;8.70;99.90
3310;DHT22;1667;53.238;10.394;2023-12-20T11:58:38;8.80;99.90
3310;DHT22;1667;53.238;10.394;2023-12-20T12:03:39;8.70;99.90
3310;DHT22;1667;53.238;10.394;2023-12-20T12:08:37;8.70;99.90
3310;DHT22;1667;53.238;10.394;2023-12-20T12:13:36;8.70;99.90
3310;DHT22;1667;53.238;10.394;2023-12-20T12:18:35;8.70;99.90
3310;DHT22;1667;53.238;10.394;2023-12-20T12:23:35;8.80;99.90
3310;DHT22;1667;53.238;10.394;2023-12-20T12:28:34;8.80;99.90
3310;DHT22;1667;53.238;10.394;2023-12-20T12:33:34;8.80;99.90
3310;DHT22;1667;53.238;10.394;2023-12-20T12:38:32;8.90;99.90
3310;DHT22;1667;53.238;10.394;2023-12-20T12:43:33;9.00;99.90
3310;DHT22;1667;53.238;10.394;2023-12-20T12:48:33;9.00;99.90
3310;DHT22;1667;53.238;10.394;2023-12-20T12:53:32;9.00;99.90
3310;DHT22;1667;53.238;10.394;2023-12-20T12:58:30;9.30;99.90
3310;DHT22;1667;53.238;10.394;2023-12-20T13:03:30;8.90;99.90
3310;DHT22;1667;53.238;10.394;2023-12-20T13:08:29;8.80;99.90
3310;DHT22;1667;53.238;10.394;2023-12-20T13:13:27;9.00;99.90
3310;DHT22;1667;53.238;10.394;2023-12-20T13:18:25;8.70;99.90
3310;DHT22;1667;53.238;10.394;2023-12-20T13:23:26;8.70;99.90
3310;DHT22;1667;53.238;10.394;2023-12-20T13:28:25;8.60;99.90
3310;DHT22;1667;53.238;10.394;2023-12-20T13:33:24;8.70;99.90
3310;DHT22;1667;53.238;10.394;2023-12-20T13:38:22;8.70;99.90
3310;DHT22;1667;53.238;10.394;2023-12-20T13:43:22;8.70;99.90
3310;DHT22;1667;53.238;10.394;2023-12-20T13:48:21;8.60;99.90
3310;DHT22;1667;53.238;10.394;2023-12-20T13:53:20;8.60;99.90
3310;DHT22;1667;53.238;10.394;2023-12-20T14:05:08;8.60;99.90
3310;DHT22;1667;53.238;10.394;2023-12-20T14:10:07;8.60;99.90
3310;DHT22;1667;53.238;10.394;2023-12-20T14:15:07;8.60;99.90
3310;DHT22;1667;53.238;10.394;2023-12-20T14:20:10;8.50;99.90
3310;DHT22;1667;53.238;10.394;2023-12-20T14:25:11;8.50;99.90
3310;DHT22;1667;53.238;10.394;2023-12-20T14:30:10;8.50;99.90
3310;DHT22;1667;53.238;10.394;2023-12-20T14:35:13;8.50;99.90
3310;DHT22;1667;53.238;10.394;2023-12-20T14:40:12;8.50;99.90
3310;DHT22;1667;53.238;10.394;2023-12-20T14:45:15;8.50;99.90
3310;DHT22;1667;53.238;10.394;2023-12-20T14:50:15;8.50;99.90
3310;DHT22;1667;53.238;10.394;2023-12-20T14:55:16;8.60;99.90
3310;DHT22;1667;53.238;10.394;2023-12-20T15:00:15;8.40;99.90
3310;DHT22;1667;53.238;10.394;2023-12-20T15:05:17;8.30;99.90
3310;DHT22;1667;53.238;10.394;2023-12-20T15:10:16;8.30;99.90
3310;DHT22;1667;53.238;10.394;2023-12-20T15:15:15;8.30;99.90
3310;DHT22;1667;53.238;10.394;2023-12-20T15:20:15;8.30;99.90
3310;DHT22;1667;53.238;10.394;2023-12-20T15:25:14;8.30;99.90
3310;DHT22;1667;53.238;10.394;2023-12-20T15:30:19;8.30;99.90
3310;DHT22;1667;53.238;10.394;2023-12-20T15:35:19;8.20;99.90
3310;DHT22;1667;53.238;10.394;2023-12-20T15:40:18;8.20;99.90
3310;DHT22;1667;53.238;10.394;2023-12-20T15:45:17;8.20;99.90
3310;DHT22;1667;53.238;10.394;2023-12-20T15:50:16;8.30;99.90
3310;DHT22;1667;53.238;10.394;2023-12-20T15:55:17;8.30;99.90
3310;DHT22;1667;53.238;10.394;2023-12-20T16:00:17;8.30;99.90
3310;DHT22;1667;53.238;10.394;2023-12-20T16:05:16;8.30;99.90
3310;DHT22;1667;53.238;10.394;2023-12-20T16:10:16;8.30;99.90
3310;DHT22;1667;53.238;10.394;2023-12-20T16:15:15;8.30;99.90
3310;DHT22;1667;53.238;10.394;2023-12-20T16:20:15;8.50;99.90
3310;DHT22;1667;53.238;10.394;2023-12-20T16:25:16;8.20;99.90
3310;DHT22;1667;53.238;10.394;2023-12-20T16:30:15;8.20;99.90
3310;DHT22;1667;53.238;10.394;2023-12-20T16:35:14;8.10;99.90
3310;DHT22;1667;53.238;10.394;2023-12-20T16:40:15;8.10;99.90
3310;DHT22;1667;53.238;10.394;2023-12-20T16:45:18;8.10;99.90
3310;DHT22;1667;53.238;10.394;2023-12-20T16:50:17;8.10;99.90
3310;DHT22;1667;53.238;10.394;2023-12-20T16:55:17;8.10;99.90
3310;DHT22;1667;53.238;10.394;2023-12-20T17:00:18;8.10;99.90
3310;DHT22;1667;53.238;10.394;2023-12-20T17:05:17;8.20;99.90
3310;DHT22;1667;53.238;10.394;2023-12-20T17:10:17;8.20;99.90
3310;DHT22;1667;53.238;10.394;2023-12-20T17:15:15;8.30;99.90
3310;DHT22;1667;53.238;10.394;2023-12-20T17:20:16;8.20;99.90
3310;DHT22;1667;53.238;10.394;2023-12-20T17:25:15;8.20;99.90
3310;DHT22;1667;53.238;10.394;2023-12-20T17:30:14;8.20;99.90
3310;DHT22;1667;53.238;10.394;2023-12-20T17:35:13;8.20;99.90
3310;DHT22;1667;53.238;10.394;2023-12-20T17:40:14;8.20;99.90
3310;DHT22;1667;53.238;10.394;2023-12-20T17:45:13;8.20;99.90
3310;DHT22;1667;53.238;10.394;2023-12-20T17:50:12;8.20;99.90
3310;DHT22;1667;53.238;10.394;2023-12-20T17:55:13;8.30;99.90
3310;DHT22;1667;53.238;10.394;2023-12-20T18:00:16;8.40;99.90
3310;DHT22;1667;53.238;10.394;2023-12-20T18:05:16;8.30;99.90
3310;DHT22;1667;53.238;10.394;2023-12-20T18:10:16;8.30;99.90
3310;DHT22;1667;53.238;10.394;2023-12-20T18:15:15;8.30;99.90
3310;DHT22;1667;53.238;10.394;2023-12-20T18:20:15;8.30;99.90
3310;DHT22;1667;53.238;10.394;2023-12-20T18:25:16;8.30;99.90
3310;DHT22;1667;53.238;10.394;2023-12-20T18:30:15;8.20;99.90
3310;DHT22;1667;53.238;10.394;2023-12-20T18:35:14;8.20;99.90
3310;DHT22;1667;53.238;10.394;2023-12-20T18:40:13;8.20;99.90
3310;DHT22;1667;53.238;10.394;2023-12-20T18:45:14;8.20;99.90
3310;DHT22;1667;53.238;10.394;2023-12-20T18:50:12;8.20;99.90
3310;DHT22;1667;53.238;10.394;2023-12-20T18:55:11;8.10;99.90
3310;DHT22;1667;53.238;10.394;2023-12-20T19:00:12;8.10;99.90
3310;DHT22;1667;53.238;10.394;2023-12-20T19:05:12;8.50;99.90
3310;DHT22;1667;53.238;10.394;2023-12-20T19:10:15;8.30;99.90
3310;DHT22;1667;53.238;10.394;2023-12-20T19:15:15;8.20;99.90
3310;DHT22;1667;53.238;10.394;2023-12-20T19:20:15;8.20;99.90
3310;DHT22;1667;53.238;10.394;2023-12-20T19:25:16;8.10;99.90
3310;DHT22;1667;53.238;10.394;2023-12-20T19:30:14;8.10;99.90
3310;DHT22;1667;53.238;10.394;2023-12-20T19:35:15;8.10;99.90
3310;DHT22;1667;53.238;10.394;2023-12-20T19:40:14;8.10;99.90
3310;DHT22;1667;53.238;10.394;2023-12-20T19:45:15;8.10;99.90
3310;DHT22;1667;53.238;10.394;2023-12-20T19:50:16;8.10;99.90
3310;DHT22;1667;53.238;10.394;2023-12-20T19:55:15;8.10;99.90
3310;DHT22;1667;53.238;10.394;2023-12-20T20:00:14;8.20;99.90
3310;DHT22;1667;53.238;10.394;2023-12-20T20:05:17;8.30;99.90
3310;DHT22;1667;53.238;10.394;2023-12-20T20:10:17;8.70;99.90
3310;DHT22;1667;53.238;10.394;2023-12-20T20:15:16;8.30;99.90
3310;DHT22;1667;53.238;10.394;2023-12-20T20:20:14;8.30;99.90
3310;DHT22;1667;53.238;10.394;2023-12-20T20:25:15;8.40;99.90
3310;DHT22;1667;53.238;10.394;2023-12-20T20:30:14;8.50;99.90
3310;DHT22;1667;53.238;10.394;2023-12-20T20:35:13;8.40;99.90
3310;DHT22;1667;53.238;10.394;2023-12-20T20:40:12;8.40;99.90
3310;DHT22;1667;53.238;10.394;2023-12-20T20:45:17;8.40;99.90
3310;DHT22;1667;53.238;10.394;2023-12-20T20:50:16;8.50;99.90
3310;DHT22;1667;53.238;10.394;2023-12-20T20:55:15;8.50;99.90
3310;DHT22;1667;53.238;10.394;2023-12-20T21:00:16;8.50;99.90
3310;DHT22;1667;53.238;10.394;2023-12-20T21:05:15;8.50;99.90
3310;DHT22;1667;53.238;10.394;2023-12-20T21:10:14;8.50;99.90
3310;DHT22;1667;53.238;10.394;2023-12-20T21:15:17;8.50;99.90
3310;DHT22;1667;53.238;10.394;2023-12-20T21:20:16;8.80;99.90
3310;DHT22;1667;53.238;10.394;2023-12-20T21:25:15;8.60;99.90
3310;DHT22;1667;53.238;10.394;2023-12-20T21:30:14;8.60;99.90
3310;DHT22;1667;53.238;10.394;2023-12-20T21:35:15;8.60;99.90
3310;DHT22;1667;53.238;10.394;2023-12-20T21:40:13;8.70;99.90
3310;DHT22;1667;53.238;10.394;2023-12-20T21:45:12;8.70;99.90
3310;DHT22;1667;53.238;10.394;2023-12-20T21:50:11;8.70;99.90
3310;DHT22;1667;53.238;10.394;2023-12-20T21:55:12;8.70;99.90
3310;DHT22;1667;53.238;10.394;2023-12-20T22:00:12;8.70;99.90
3310;DHT22;1667;53.238;10.394;2023-12-20T22:05:11;8.70;99.90
3310;DHT22;1667;53.238;10.394;2023-12-20T22:10:11;8.70;99.90
3310;DHT22;1667;53.238;10.394;2023-12-20T22:15:11;8.70;99.90
3310;DHT22;1667;53.238;10.394;2023-12-20T22:20:10;8.70;99.90
3310;DHT22;1667;53.238;10.394;2023-12-20T22:25:13;8.70;99.90
3310;DHT22;1667;53.238;10.394;2023-12-20T22:36:35;8.80;99.90
3310;DHT22;1667;53.238;10.394;2023-12-20T22:41:36;8.80;99.90
3310;DHT22;1667;53.238;10.394;2023-12-20T22:46:36;8.80;99.90
3310;DHT22;1667;53.238;10.394;2023-12-20T22:51:38;8.80;99.90
3310;DHT22;1667;53.238;10.394;2023-12-20T22:56:38;8.80;99.90
3310;DHT22;1667;53.238;10.394;2023-12-20T23:12:53;9.00;99.90
3310;DHT22;1667;53.238;10.394;2023-12-20T23:17:51;9.20;99.90
3310;DHT22;1667;53.238;10.394;2023-12-20T23:22:54;9.30;99.90
3310;DHT22;1667;53.238;10.394;2023-12-20T23:27:55;9.20;99.90
3310;DHT22;1667;53.238;10.394;2023-12-20T23:32:55;9.20;99.90
3310;DHT22;1667;53.238;10.394;2023-12-20T23:38:14;9.30;99.90
3310;DHT22;1667;53.238;10.394;2023-12-20T23:43:14;9.30;99.90
3310;DHT22;1667;53.238;10.394;2023-12-20T23:48:15;9.30;99.90
3310;DHT22;1667;53.238;10.394;2023-12-20T23:53:13;9.40;99.90
3310;DHT22;1667;53.238;10.394;2023-12-20T23:58:15;9.50;99.90
